Wittenberg, Wisconsin
Current Conditions -  °F | °C
As of 5:55 AM on Sunday 23 Nov 2014 (Local Time) from KAIG Reporting Station
Moderate Fog Moderate Fog  
Wind Chill: 30°   Ceiling: 300
Heat Index: 38°   Visibility: 0.25mi
Dew Point: 38°   Wind: 12mph
Humidity: 100%   Direction: 170°S
Pressure: 29.58"   Gusts: NA
Location:  44.83°N, 89.17°W
Report Text: KAIG 231155Z AUTO 17010KT 1/4SM FG OVC003 03/03 A2958 RMK AO2 T00310031 10031 20009
Loading
Personal Weather Stations






























Interactive Weather Map New forecast layout! Learn more

10-Day Weather Forecast

Advertisements
Track Severe Weather on mobile